Time;durP1;ratioP1;P1;durP2;ratioP2;P2;SDS_P1;SDS_P2;PMS_P1;PMS_P2;Temp;Humidity;BMP_temperature;BMP_pressure;BME280_temperature;BME280_humidity;BME280_pressure;Samples;Min_cycle;Max_cycle;Signal;HPM_P1;HPM_P2
2023/06/03 00:01:11;;;;;;;2.42;0.95;;;22.20;80.70;;;;;;5081498;28;20191;-87
2023/06/03 00:03:44;;;;;;;0.70;0.70;;;22.20;80.90;;;;;;5086330;28;20209;-86
2023/06/03 00:06:13;;;;;;;1.65;1.15;;;22.10;81.00;;;;;;5084389;28;20186;-87
2023/06/03 00:08:43;;;;;;;1.13;0.90;;;22.10;81.50;;;;;;5079353;28;20659;-85
2023/06/03 00:11:13;;;;;;;1.88;1.05;;;22.10;81.30;;;;;;5091757;28;20203;-84
2023/06/03 00:13:42;;;;;;;1.75;1.20;;;22.00;81.30;;;;;;5080841;28;20224;-83
2023/06/03 00:16:10;;;;;;;0.60;0.50;;;22.00;81.10;;;;;;5076194;28;20254;-86
2023/06/03 00:18:40;;;;;;;1.33;0.73;;;22.00;81.00;;;;;;5082359;28;20202;-84
2023/06/03 00:21:09;;;;;;;0.90;0.77;;;22.00;81.10;;;;;;5075308;28;20232;-85
2023/06/03 00:23:38;;;;;;;0.82;0.73;;;22.00;80.90;;;;;;5084438;28;20198;-86
2023/06/03 00:26:07;;;;;;;1.52;0.93;;;22.00;80.90;;;;;;5082826;28;20649;-85
2023/06/03 00:28:35;;;;;;;0.88;0.70;;;21.90;80.70;;;;;;5085922;28;20198;-86
2023/06/03 00:31:03;;;;;;;0.40;0.40;;;21.90;80.60;;;;;;5081896;28;20722;-85
2023/06/03 00:33:32;;;;;;;1.35;0.95;;;21.90;80.60;;;;;;5081310;28;20197;-85
2023/06/03 00:36:02;;;;;;;2.05;1.02;;;21.90;80.60;;;;;;5082604;27;20306;-84
2023/06/03 00:38:30;;;;;;;0.55;0.55;;;21.90;80.60;;;;;;5080223;28;20194;-86
2023/06/03 00:40:59;;;;;;;0.60;0.52;;;21.90;80.70;;;;;;5083295;28;20247;-85
2023/06/03 00:43:27;;;;;;;1.27;0.60;;;21.80;80.60;;;;;;5089018;28;20213;-86
2023/06/03 00:45:56;;;;;;;1.08;0.80;;;21.80;80.60;;;;;;5081041;28;20271;-85
2023/06/03 00:48:24;;;;;;;0.75;0.55;;;21.80;80.70;;;;;;5077880;28;20201;-85
2023/06/03 00:50:53;;;;;;;1.92;0.80;;;21.80;80.70;;;;;;5078549;28;20194;-83
2023/06/03 00:53:23;;;;;;;1.10;0.60;;;21.70;80.60;;;;;;5090933;28;20237;-86
2023/06/03 00:55:52;;;;;;;0.32;0.32;;;21.70;80.50;;;;;;5086706;28;20202;-85
2023/06/03 00:58:20;;;;;;;0.88;0.65;;;21.70;80.40;;;;;;5083376;28;20189;-83
2023/06/03 01:00:49;;;;;;;0.80;0.75;;;21.60;80.30;;;;;;5089287;28;20220;-85
2023/06/03 01:03:19;;;;;;;1.13;0.85;;;21.70;80.70;;;;;;5073647;28;20190;-84
2023/06/03 01:05:55;;;;;;;1.83;0.85;;;21.60;80.90;;;;;;5076552;28;20212;-84
2023/06/03 01:08:31;;;;;;;0.47;0.43;;;21.60;80.80;;;;;;5078359;28;20658;-87
2023/06/03 01:11:08;;;;;;;0.73;0.60;;;21.50;80.80;;;;;;5080123;28;20636;-86
2023/06/03 01:13:46;;;;;;;0.75;0.60;;;21.50;80.60;;;;;;5081049;28;20190;-85
2023/06/03 01:16:18;;;;;;;0.30;0.30;;;21.50;80.60;;;;;;5082420;28;20186;-85
2023/06/03 01:18:48;;;;;;;0.70;0.70;;;21.50;80.80;;;;;;5079205;28;20229;-85
2023/06/03 01:21:17;;;;;;;1.10;0.77;;;21.40;80.70;;;;;;5080594;28;20224;-84
2023/06/03 01:23:48;;;;;;;1.88;0.90;;;21.40;80.80;;;;;;5072321;28;20206;-86
2023/06/03 01:26:19;;;;;;;1.90;0.88;;;21.40;80.70;;;;;;5073385;28;20303;-86
2023/06/03 01:28:49;;;;;;;1.83;1.20;;;21.40;80.80;;;;;;5089026;28;20209;-85
2023/06/03 01:31:18;;;;;;;1.92;1.35;;;21.40;80.80;;;;;;5080129;28;20198;-85
2023/06/03 01:33:47;;;;;;;0.47;0.47;;;21.40;80.70;;;;;;5089286;28;20561;-86
2023/06/03 01:36:16;;;;;;;0.77;0.57;;;21.40;80.70;;;;;;5084042;28;20240;-85
2023/06/03 01:38:46;;;;;;;2.45;1.23;;;21.40;80.50;;;;;;5088648;28;20733;-86
2023/06/03 01:41:16;;;;;;;1.85;0.77;;;21.30;80.60;;;;;;5082102;28;20192;-85
2023/06/03 01:43:45;;;;;;;1.17;1.08;;;21.30;80.70;;;;;;5082796;28;20555;-83
2023/06/03 01:46:13;;;;;;;2.75;0.95;;;21.30;80.80;;;;;;5094293;28;20222;-85
2023/06/03 01:48:43;;;;;;;0.68;0.68;;;21.30;80.70;;;;;;5083432;28;20190;-85
2023/06/03 01:51:11;;;;;;;1.60;1.10;;;21.30;80.70;;;;;;5092149;28;20229;-86
2023/06/03 01:53:40;;;;;;;2.00;1.45;;;21.20;80.50;;;;;;5093594;28;20197;-85
2023/06/03 01:56:10;;;;;;;0.93;0.70;;;21.20;80.50;;;;;;5084778;28;20196;-85
2023/06/03 01:58:38;;;;;;;2.83;0.55;;;21.20;80.50;;;;;;5086494;28;20725;-84
2023/06/03 02:01:08;;;;;;;1.13;0.80;;;21.20;80.50;;;;;;5077532;28;20619;-85
2023/06/03 02:03:36;;;;;;;1.52;0.93;;;21.10;80.50;;;;;;5090851;28;20197;-83
2023/06/03 02:06:05;;;;;;;0.63;0.57;;;21.10;80.60;;;;;;5078865;28;20222;-83
2023/06/03 02:08:35;;;;;;;1.23;0.63;;;21.10;80.50;;;;;;5098938;28;20203;-85
2023/06/03 02:11:04;;;;;;;0.93;0.73;;;21.10;80.70;;;;;;5081678;28;20661;-84
2023/06/03 02:13:34;;;;;;;0.50;0.50;;;21.10;80.80;;;;;;5084077;28;20224;-85
2023/06/03 02:16:03;;;;;;;0.60;0.60;;;21.10;80.70;;;;;;5081635;28;20192;-84
2023/06/03 02:18:32;;;;;;;0.67;0.67;;;21.10;80.80;;;;;;5081483;28;20197;-85
2023/06/03 02:21:00;;;;;;;1.50;0.73;;;21.10;81.10;;;;;;5089931;28;20221;-84
2023/06/03 02:23:29;;;;;;;1.23;0.80;;;21.10;81.10;;;;;;5087398;28;20190;-86
2023/06/03 02:25:58;;;;;;;0.60;0.50;;;21.10;81.10;;;;;;5081812;28;20222;-86
2023/06/03 02:28:26;;;;;;;0.65;0.65;;;21.10;81.10;;;;;;5075567;28;20202;-87
2023/06/03 02:30:56;;;;;;;0.93;0.65;;;21.00;81.30;;;;;;5087689;28;20202;-86
2023/06/03 02:33:25;;;;;;;0.68;0.55;;;21.00;81.30;;;;;;5096568;28;20193;-86
2023/06/03 02:35:53;;;;;;;0.90;0.55;;;21.00;81.50;;;;;;5091943;28;20189;-86
2023/06/03 02:38:21;;;;;;;0.83;0.70;;;21.10;81.50;;;;;;5096209;28;20202;-86
2023/06/03 02:40:50;;;;;;;2.05;1.15;;;21.10;81.40;;;;;;5089483;28;20221;-85
2023/06/03 02:43:18;;;;;;;4.43;0.82;;;21.00;81.60;;;;;;5087117;28;20186;-85
2023/06/03 02:45:46;;;;;;;1.75;1.08;;;21.10;81.80;;;;;;5087702;28;20228;-85
2023/06/03 02:48:16;;;;;;;1.55;0.77;;;21.00;82.50;;;;;;5075910;28;20236;-84
2023/06/03 02:50:45;;;;;;;2.85;1.23;;;21.00;82.90;;;;;;5084950;28;20259;-85
2023/06/03 02:53:14;;;;;;;2.22;1.38;;;21.00;82.90;;;;;;5087333;28;20203;-86
2023/06/03 02:55:47;;;;;;;1.38;0.80;;;21.00;83.20;;;;;;5089832;28;20582;-85
2023/06/03 02:58:15;;;;;;;2.40;1.85;;;20.90;83.60;;;;;;5086591;28;20551;-86
2023/06/03 03:00:44;;;;;;;1.80;1.13;;;21.00;83.60;;;;;;5085283;28;20537;-85
2023/06/03 03:03:13;;;;;;;7.57;0.73;;;20.90;84.00;;;;;;5083843;28;20555;-84
2023/06/03 03:05:43;;;;;;;15.32;0.95;;;20.90;84.40;;;;;;5093406;28;20218;-86
2023/06/03 03:08:12;;;;;;;0.80;0.55;;;20.90;84.20;;;;;;5084801;28;20567;-85
2023/06/03 03:10:40;;;;;;;7.88;1.10;;;20.80;84.60;;;;;;5088686;28;20186;-85
2023/06/03 03:13:09;;;;;;;0.55;0.55;;;20.80;84.50;;;;;;5084605;28;20662;-86
2023/06/03 03:15:37;;;;;;;8.95;1.17;;;20.80;84.70;;;;;;5093786;28;20277;-85
2023/06/03 03:18:06;;;;;;;3.30;0.77;;;20.80;85.00;;;;;;5090766;28;20309;-85
2023/06/03 03:20:34;;;;;;;2.92;1.25;;;20.80;84.90;;;;;;5085525;28;20225;-86
2023/06/03 03:23:06;;;;;;;0.85;0.80;;;20.90;84.80;;;;;;5055056;28;20198;-85
2023/06/03 03:25:34;;;;;;;0.77;0.77;;;20.90;84.70;;;;;;5050580;28;20620;-85
2023/06/03 03:28:03;;;;;;;2.58;1.13;;;20.90;85.00;;;;;;5041778;28;20707;-86
2023/06/03 03:30:31;;;;;;;0.40;0.40;;;20.90;84.50;;;;;;5048980;28;20210;-84
2023/06/03 03:33:00;;;;;;;0.70;0.70;;;21.00;84.40;;;;;;5048054;28;20572;-86
2023/06/03 03:35:29;;;;;;;0.65;0.60;;;21.00;84.10;;;;;;5048871;28;20203;-86
2023/06/03 03:38:03;;;;;;;1.38;1.02;;;21.10;84.30;;;;;;5060481;28;20190;-86
2023/06/03 03:40:36;;;;;;;1.00;1.00;;;21.10;84.20;;;;;;5053191;28;20194;-87
2023/06/03 03:43:04;;;;;;;0.40;0.40;;;21.20;84.20;;;;;;5035064;28;20267;-85
2023/06/03 03:45:35;;;;;;;1.48;0.90;;;21.20;83.80;;;;;;5048640;28;20311;-85
2023/06/03 03:48:06;;;;;;;0.95;0.80;;;21.20;83.40;;;;;;5045595;28;20195;-85
2023/06/03 03:50:44;;;;;;;2.30;1.13;;;21.30;83.20;;;;;;5053572;28;20187;-85
2023/06/03 03:53:14;;;;;;;2.45;1.48;;;21.40;82.70;;;;;;5046333;28;20188;-86
2023/06/03 03:55:46;;;;;;;1.95;0.60;;;21.40;81.90;;;;;;5042568;28;20281;-86
2023/06/03 03:58:25;;;;;;;7.45;2.33;;;21.50;81.30;;;;;;5049998;28;20275;-85
2023/06/03 04:00:54;;;;;;;1.35;1.20;;;21.50;81.20;;;;;;5057769;28;20257;-86
2023/06/03 04:03:25;;;;;;;1.17;0.88;;;21.60;80.80;;;;;;5048590;28;20274;-87
2023/06/03 04:05:54;;;;;;;1.52;1.00;;;21.60;80.20;;;;;;5050362;28;20216;-87
2023/06/03 04:08:43;;;;;;;4.55;1.58;;;21.70;80.20;;;;;;5054148;28;20199;-88
2023/06/03 04:11:20;;;;;;;1.75;1.02;;;21.70;79.60;;;;;;5052308;28;20183;-84
2023/06/03 04:13:49;;;;;;;1.73;1.13;;;21.80;79.40;;;;;;5032261;28;20444;-84
2023/06/03 04:16:54;;;;;;;0.85;0.70;;;21.90;79.40;;;;;;5042423;28;20188;-84
2023/06/03 04:19:27;;;;;;;1.00;0.70;;;22.00;78.90;;;;;;5041679;28;20320;-83
2023/06/03 04:21:56;;;;;;;2.03;1.27;;;22.00;78.60;;;;;;5063526;28;20290;-88
2023/06/03 04:24:25;;;;;;;2.05;1.00;;;22.00;78.10;;;;;;5087305;28;20204;-85
2023/06/03 04:26:55;;;;;;;1.42;0.70;;;22.10;78.10;;;;;;5082481;28;20226;-87
2023/06/03 04:29:24;;;;;;;2.65;1.05;;;22.10;78.00;;;;;;5087999;28;20197;-86
2023/06/03 04:31:52;;;;;;;2.78;1.80;;;22.20;77.40;;;;;;5080946;28;20298;-87
2023/06/03 04:34:21;;;;;;;1.00;0.90;;;22.20;77.40;;;;;;5091024;28;20189;-85
2023/06/03 04:36:49;;;;;;;0.80;0.80;;;22.30;77.40;;;;;;5091704;28;20193;-85
2023/06/03 04:39:18;;;;;;;2.95;1.00;;;22.30;77.20;;;;;;5085997;28;20576;-86
2023/06/03 04:41:46;;;;;;;1.52;0.82;;;22.30;76.90;;;;;;5088335;28;20645;-84
2023/06/03 04:44:16;;;;;;;1.02;0.85;;;22.40;76.80;;;;;;5076527;28;20190;-91
2023/06/03 04:46:45;;;;;;;1.83;1.38;;;22.40;76.70;;;;;;5086824;28;20209;-85
2023/06/03 04:49:15;;;;;;;1.20;0.80;;;22.50;76.70;;;;;;5082861;28;20186;-87
2023/06/03 04:51:44;;;;;;;2.47;1.52;;;22.50;76.40;;;;;;5083427;28;20643;-85
2023/06/03 04:54:12;;;;;;;0.75;0.70;;;22.60;76.30;;;;;;5076679;28;20194;-84
2023/06/03 04:56:42;;;;;;;6.18;0.73;;;22.60;76.30;;;;;;5080331;28;20198;-85
2023/06/03 04:59:10;;;;;;;1.33;0.82;;;22.60;76.10;;;;;;5084943;28;20186;-86
2023/06/03 05:01:40;;;;;;;2.63;1.05;;;22.60;75.70;;;;;;5082150;28;20209;-85
2023/06/03 05:04:13;;;;;;;0.93;0.68;;;22.70;75.80;;;;;;5076837;28;20191;-84
2023/06/03 05:06:42;;;;;;;6.50;0.95;;;22.70;76.00;;;;;;5077033;28;20206;-84
2023/06/03 05:09:11;;;;;;;1.98;0.98;;;22.80;75.90;;;;;;5081091;28;20194;-85
2023/06/03 05:11:39;;;;;;;3.90;1.00;;;22.80;75.70;;;;;;5086735;28;20224;-87
2023/06/03 05:14:11;;;;;;;1.30;1.00;;;22.80;75.60;;;;;;5090058;28;20553;-87
2023/06/03 05:16:41;;;;;;;0.80;0.80;;;22.90;75.40;;;;;;5074203;28;20190;-85
2023/06/03 05:19:09;;;;;;;2.03;1.15;;;22.90;75.50;;;;;;5077095;28;20194;-88
2023/06/03 05:21:38;;;;;;;1.45;1.08;;;22.90;75.10;;;;;;5079445;28;20222;-83
2023/06/03 05:24:07;;;;;;;0.80;0.52;;;23.00;75.10;;;;;;5086172;27;20189;-85
2023/06/03 05:26:36;;;;;;;1.13;0.65;;;23.10;75.20;;;;;;5087859;28;20301;-85
2023/06/03 05:29:04;;;;;;;0.80;0.80;;;23.20;74.90;;;;;;5071856;28;20195;-86
2023/06/03 05:31:33;;;;;;;13.80;1.38;;;23.30;75.20;;;;;;5090483;28;20721;-88
2023/06/03 05:34:03;;;;;;;1.95;0.93;;;23.30;74.30;;;;;;5085131;28;20646;-86
2023/06/03 05:36:31;;;;;;;2.63;1.17;;;23.40;73.40;;;;;;5088441;28;20194;-88
2023/06/03 05:38:59;;;;;;;0.70;0.60;;;23.40;73.70;;;;;;5089720;28;20200;-87
2023/06/03 05:41:29;;;;;;;1.13;0.73;;;23.50;73.70;;;;;;5094042;28;20198;-85
2023/06/03 05:43:57;;;;;;;1.00;0.82;;;23.60;73.70;;;;;;5071788;28;20190;-83
2023/06/03 05:46:25;;;;;;;1.13;0.88;;;23.70;73.70;;;;;;5094997;28;20208;-87
2023/06/03 05:48:54;;;;;;;8.02;1.30;;;23.70;72.80;;;;;;5094940;28;20194;-85
2023/06/03 05:51:25;;;;;;;3.33;0.90;;;23.90;73.00;;;;;;5080734;28;20205;-86
2023/06/03 05:53:53;;;;;;;1.63;1.30;;;24.00;72.40;;;;;;5096790;28;20196;-84
2023/06/03 05:56:21;;;;;;;0.85;0.80;;;24.10;72.50;;;;;;5085403;28;20197;-87
2023/06/03 05:58:51;;;;;;;2.00;1.58;;;24.20;72.30;;;;;;5087960;28;20198;-87
2023/06/03 06:01:20;;;;;;;2.95;1.17;;;24.20;71.80;;;;;;5085697;28;21795;-85
2023/06/03 06:03:49;;;;;;;1.08;0.80;;;24.40;71.40;;;;;;5078020;28;20198;-83
2023/06/03 06:06:17;;;;;;;0.82;0.82;;;24.40;70.70;;;;;;5083970;28;20293;-84
2023/06/03 06:08:47;;;;;;;1.90;1.15;;;24.50;70.80;;;;;;5086887;28;20240;-85
2023/06/03 06:11:16;;;;;;;3.80;0.75;;;24.60;70.80;;;;;;5078594;28;20663;-85
2023/06/03 06:13:44;;;;;;;1.27;1.10;;;24.60;70.20;;;;;;5093923;28;20255;-85
2023/06/03 06:16:13;;;;;;;0.68;0.63;;;24.70;69.70;;;;;;5085431;28;20232;-85
2023/06/03 06:18:42;;;;;;;1.48;1.13;;;24.60;68.90;;;;;;5094984;28;20231;-84
2023/06/03 06:21:10;;;;;;;0.93;0.82;;;24.70;69.20;;;;;;5087960;28;20217;-82
2023/06/03 06:23:45;;;;;;;2.08;1.25;;;24.70;69.10;;;;;;5091018;28;20203;-83
2023/06/03 06:26:16;;;;;;;1.10;1.02;;;24.70;68.60;;;;;;5086687;28;20191;-84
2023/06/03 06:28:45;;;;;;;1.10;1.00;;;24.80;68.50;;;;;;5085592;28;20209;-87
2023/06/03 06:31:16;;;;;;;0.80;0.70;;;24.80;68.30;;;;;;5087053;28;20280;-85
2023/06/03 06:33:48;;;;;;;1.10;1.00;;;24.80;68.30;;;;;;5091507;28;20234;-87
2023/06/03 06:36:30;;;;;;;1.83;1.13;;;24.90;68.60;;;;;;5082372;28;20190;-86
2023/06/03 06:38:59;;;;;;;1.23;0.82;;;25.00;68.20;;;;;;5086527;28;20197;-87
2023/06/03 06:41:30;;;;;;;1.00;0.90;;;25.00;68.00;;;;;;5080146;28;20198;-87
2023/06/03 06:44:01;;;;;;;1.25;1.08;;;25.10;67.20;;;;;;5092715;28;20195;-89
2023/06/03 06:46:38;;;;;;;1.75;1.02;;;25.20;67.30;;;;;;5084869;28;20605;-92
2023/06/03 06:49:06;;;;;;;0.90;0.68;;;25.20;67.10;;;;;;5079237;28;20210;-88
2023/06/03 06:51:36;;;;;;;1.38;1.00;;;25.30;67.30;;;;;;5083619;28;20217;-88
2023/06/03 06:54:04;;;;;;;6.45;0.98;;;25.40;67.40;;;;;;5071934;28;20202;-89
2023/06/03 06:56:36;;;;;;;1.58;0.68;;;25.40;66.60;;;;;;5086660;28;20197;-87
2023/06/03 06:59:04;;;;;;;2.55;1.25;;;25.50;67.00;;;;;;5079265;28;20222;-87
2023/06/03 07:01:32;;;;;;;1.20;0.90;;;25.60;67.10;;;;;;5078901;28;20670;-86
2023/06/03 07:04:01;;;;;;;1.48;1.02;;;25.60;65.30;;;;;;5076738;28;20646;-85
2023/06/03 07:06:30;;;;;;;1.55;1.33;;;25.70;66.20;;;;;;5079027;28;20564;-88
2023/06/03 07:08:58;;;;;;;3.33;1.10;;;25.70;64.90;;;;;;5074585;28;20224;-87
2023/06/03 07:11:27;;;;;;;12.15;1.92;;;25.80;63.60;;;;;;5081205;28;20199;-86
2023/06/03 07:13:56;;;;;;;0.98;0.50;;;25.80;63.00;;;;;;5078819;28;20186;-86
2023/06/03 07:16:25;;;;;;;2.70;1.48;;;25.90;63.50;;;;;;5075900;28;20210;-86
2023/06/03 07:18:53;;;;;;;2.25;1.20;;;26.00;63.80;;;;;;5076248;28;20599;-86
2023/06/03 07:21:25;;;;;;;1.75;1.08;;;26.00;63.50;;;;;;5088077;28;20858;-88
2023/06/03 07:23:53;;;;;;;0.93;0.77;;;26.00;62.40;;;;;;5086263;28;20668;-88
2023/06/03 07:26:23;;;;;;;5.18;1.65;;;26.10;62.90;;;;;;5079570;28;20279;-87
2023/06/03 07:28:52;;;;;;;2.75;1.10;;;26.10;62.70;;;;;;5074906;28;20685;-88
2023/06/03 07:31:22;;;;;;;1.42;0.95;;;26.10;61.50;;;;;;5082241;28;20202;-87
2023/06/03 07:33:52;;;;;;;1.90;0.93;;;26.10;62.20;;;;;;5089685;28;20681;-83
2023/06/03 07:36:21;;;;;;;4.07;1.33;;;26.10;62.10;;;;;;5084665;28;20203;-89
2023/06/03 07:39:02;;;;;;;0.60;0.60;;;26.20;62.20;;;;;;5084325;28;20198;-86
2023/06/03 07:41:37;;;;;;;2.33;1.05;;;26.20;61.40;;;;;;5078563;28;20190;-89
2023/06/03 07:44:07;;;;;;;0.68;0.60;;;26.20;61.50;;;;;;5074803;28;20634;-87
2023/06/03 07:46:43;;;;;;;1.00;0.63;;;26.20;61.10;;;;;;5078213;28;20201;-89
2023/06/03 07:49:13;;;;;;;2.28;0.80;;;26.20;60.70;;;;;;5078446;28;20237;-88
2023/06/03 07:51:46;;;;;;;0.75;0.65;;;26.20;59.80;;;;;;5086064;28;20224;-87
2023/06/03 07:54:15;;;;;;;4.22;0.93;;;26.20;59.90;;;;;;5088939;28;20281;-88
2023/06/03 07:56:44;;;;;;;1.23;0.80;;;26.30;60.00;;;;;;5076671;28;20190;-88
2023/06/03 07:59:14;;;;;;;2.08;1.02;;;26.30;59.80;;;;;;5077047;28;20191;-86
2023/06/03 08:01:44;;;;;;;1.00;0.90;;;26.40;59.50;;;;;;5080823;28;20202;-88
2023/06/03 08:04:26;;;;;;;0.50;0.50;;;26.40;58.70;;;;;;5076057;28;20288;-86
2023/06/03 08:06:55;;;;;;;1.15;0.93;;;26.40;58.60;;;;;;5086969;28;20557;-84
2023/06/03 08:09:28;;;;;;;0.70;0.70;;;26.50;59.20;;;;;;5088452;28;20222;-86
2023/06/03 08:11:58;;;;;;;1.00;0.80;;;26.50;58.40;;;;;;5082401;28;20705;-88
2023/06/03 08:14:26;;;;;;;0.85;0.77;;;26.60;58.30;;;;;;5078503;28;20268;-84
2023/06/03 08:17:02;;;;;;;1.20;1.02;;;26.60;58.50;;;;;;5078749;28;20639;-86
2023/06/03 08:19:31;;;;;;;4.25;1.02;;;26.70;58.20;;;;;;5078337;28;20861;-86
2023/06/03 08:21:59;;;;;;;5.05;0.65;;;26.70;57.10;;;;;;5074584;28;20686;-85
2023/06/03 08:24:27;;;;;;;1.75;0.82;;;26.70;56.60;;;;;;5080675;28;20289;-87
2023/06/03 08:26:56;;;;;;;1.33;0.60;;;26.70;57.00;;;;;;5085593;28;20236;-86
2023/06/03 08:29:24;;;;;;;3.58;0.88;;;26.70;57.30;;;;;;5091246;28;20325;-87
2023/06/03 08:31:53;;;;;;;1.38;0.82;;;26.70;56.60;;;;;;5082120;28;20197;-87
2023/06/03 08:34:23;;;;;;;1.13;0.77;;;26.70;55.70;;;;;;5085792;28;20246;-87
2023/06/03 08:36:51;;;;;;;1.05;0.70;;;26.80;56.00;;;;;;5071946;28;20240;-88
2023/06/03 08:39:19;;;;;;;0.43;0.43;;;26.80;56.70;;;;;;5079082;28;20187;-87
2023/06/03 08:41:54;;;;;;;1.40;0.80;;;26.80;56.20;;;;;;5078149;28;20186;-85
2023/06/03 08:44:36;;;;;;;0.93;0.73;;;26.90;56.00;;;;;;5085614;28;20194;-86
2023/06/03 08:47:12;;;;;;;2.47;0.90;;;26.90;55.80;;;;;;5074772;28;20193;-88
2023/06/03 08:49:53;;;;;;;1.25;1.15;;;27.00;55.20;;;;;;5086373;28;20209;-91
2023/06/03 08:52:24;;;;;;;3.30;1.23;;;27.00;55.00;;;;;;5084591;28;20224;-86
2023/06/03 08:54:55;;;;;;;3.38;1.42;;;27.10;54.80;;;;;;5086096;28;20188;-86
2023/06/03 08:57:24;;;;;;;1.50;0.80;;;27.10;55.00;;;;;;5077081;28;20683;-87
2023/06/03 08:59:54;;;;;;;0.82;0.65;;;27.10;54.30;;;;;;5076092;28;20578;-87
2023/06/03 09:02:24;;;;;;;1.55;1.10;;;27.10;54.20;;;;;;5086922;28;20271;-87
2023/06/03 09:04:55;;;;;;;0.90;0.85;;;27.00;53.60;;;;;;5074998;28;20230;-87
2023/06/03 09:07:24;;;;;;;1.67;1.00;;;27.10;54.40;;;;;;5077483;28;20194;-87
2023/06/03 09:09:55;;;;;;;5.60;1.30;;;27.10;54.70;;;;;;5087218;28;20232;-86
2023/06/03 09:12:27;;;;;;;1.50;1.02;;;27.10;54.70;;;;;;5081829;28;20692;-85
2023/06/03 09:14:56;;;;;;;1.60;1.15;;;27.10;53.90;;;;;;5080151;28;20193;-88
2023/06/03 09:17:27;;;;;;;0.82;0.80;;;27.10;54.40;;;;;;5074352;28;21024;-87
2023/06/03 09:20:01;;;;;;;1.33;0.90;;;27.10;54.70;;;;;;5080650;28;20245;-87
2023/06/03 09:22:30;;;;;;;1.33;1.20;;;27.10;54.70;;;;;;5079942;28;20236;-86
2023/06/03 09:24:58;;;;;;;1.67;0.90;;;27.00;54.60;;;;;;5081195;28;20202;-87
2023/06/03 09:27:27;;;;;;;1.10;0.80;;;27.00;54.20;;;;;;5080338;28;20217;-87
2023/06/03 09:29:56;;;;;;;1.85;0.90;;;27.00;54.70;;;;;;5089318;28;20227;-87
2023/06/03 09:32:25;;;;;;;2.08;1.13;;;27.00;55.20;;;;;;5081500;28;20244;-86
2023/06/03 09:34:54;;;;;;;0.88;0.57;;;27.10;55.40;;;;;;5076149;28;20189;-86
2023/06/03 09:37:24;;;;;;;1.63;0.85;;;27.10;55.70;;;;;;5084031;28;20205;-85
2023/06/03 09:40:00;;;;;;;1.75;1.08;;;27.20;56.30;;;;;;5081779;28;20245;-86
2023/06/03 09:42:42;;;;;;;1.30;1.17;;;27.30;55.40;;;;;;5073016;28;20194;-87
2023/06/03 09:45:24;;;;;;;1.30;0.70;;;27.30;55.20;;;;;;5090170;28;20190;-90
2023/06/03 09:47:53;;;;;;;1.75;1.33;;;27.40;55.20;;;;;;5082928;28;20619;-87
2023/06/03 09:50:23;;;;;;;0.40;0.30;;;27.40;55.30;;;;;;5081936;28;20289;-88
2023/06/03 09:52:53;;;;;;;1.30;0.68;;;27.60;55.30;;;;;;5083838;28;20249;-85
2023/06/03 09:55:28;;;;;;;0.77;0.68;;;27.60;55.00;;;;;;5086395;28;20232;-86
2023/06/03 09:58:04;;;;;;;2.53;0.70;;;27.60;54.70;;;;;;5072968;28;20186;-87
2023/06/03 10:00:46;;;;;;;4.05;1.55;;;27.70;54.20;;;;;;5086036;28;20201;-89
2023/06/03 10:03:14;;;;;;;1.15;0.85;;;27.70;54.50;;;;;;5081567;28;20642;-86
2023/06/03 10:05:43;;;;;;;2.85;1.38;;;27.70;54.30;;;;;;5083642;28;20200;-88
2023/06/03 10:08:13;;;;;;;3.15;0.73;;;27.80;54.20;;;;;;5075228;28;20198;-89
2023/06/03 10:10:56;;;;;;;1.45;0.88;;;27.90;54.40;;;;;;5088681;28;20238;-89
2023/06/03 10:13:25;;;;;;;1.17;0.68;;;27.90;54.60;;;;;;5089951;28;20246;-87
2023/06/03 10:15:53;;;;;;;2.05;1.00;;;28.00;54.60;;;;;;5073042;28;20213;-86
2023/06/03 10:18:37;;;;;;;2.60;1.23;;;28.00;54.30;;;;;;5083839;28;20289;-89
2023/06/03 10:21:07;;;;;;;2.72;0.88;;;28.00;54.40;;;;;;5085583;28;20253;-88
2023/06/03 10:23:39;;;;;;;1.33;1.00;;;28.10;54.80;;;;;;5073349;28;20198;-86
2023/06/03 10:26:09;;;;;;;1.42;1.33;;;28.10;54.60;;;;;;5083878;28;20277;-87
2023/06/03 10:28:39;;;;;;;2.45;1.23;;;28.10;54.40;;;;;;5075539;28;20544;-86
2023/06/03 10:31:08;;;;;;;0.95;0.82;;;28.10;53.90;;;;;;5074992;28;20205;-89
2023/06/03 10:33:38;;;;;;;5.72;2.17;;;28.20;53.90;;;;;;5080260;28;20186;-86
2023/06/03 10:36:09;;;;;;;2.00;1.02;;;28.10;52.80;;;;;;5083581;28;20265;-92
2023/06/03 10:38:42;;;;;;;11.63;1.27;;;28.10;53.60;;;;;;5084474;28;20205;-87
2023/06/03 10:41:12;;;;;;;1.80;1.58;;;28.10;53.80;;;;;;5078735;28;20194;-87
2023/06/03 10:43:44;;;;;;;1.35;0.80;;;28.10;53.70;;;;;;5083114;28;20213;-86
2023/06/03 10:46:14;;;;;;;1.08;0.63;;;28.10;54.00;;;;;;5088100;28;20710;-90
2023/06/03 10:48:46;;;;;;;1.48;0.80;;;28.10;53.80;;;;;;5100526;28;20593;-89
2023/06/03 10:51:35;;;;;;;1.13;1.02;;;28.10;53.60;;;;;;5085428;28;20587;-90
2023/06/03 10:54:19;;;;;;;1.00;0.80;;;28.20;53.80;;;;;;5088841;28;20289;-90
2023/06/03 10:56:52;;;;;;;1.23;1.05;;;28.10;53.70;;;;;;5086767;28;20189;-88
2023/06/03 10:59:25;;;;;;;1.17;0.77;;;28.20;54.10;;;;;;5087593;28;20283;-85
2023/06/03 11:01:58;;;;;;;0.77;0.77;;;28.30;54.20;;;;;;5087392;28;20186;-86
2023/06/03 11:04:29;;;;;;;1.83;0.90;;;28.30;53.90;;;;;;5087453;28;20284;-90
2023/06/03 11:06:58;;;;;;;1.17;1.00;;;28.30;53.90;;;;;;5089195;28;20189;-87
2023/06/03 11:09:36;;;;;;;1.30;0.90;;;28.40;53.70;;;;;;5085097;28;20659;-86
2023/06/03 11:12:12;;;;;;;2.22;1.90;;;28.40;53.50;;;;;;5091462;28;20193;-87
2023/06/03 11:14:57;;;;;;;1.40;1.10;;;28.40;53.40;;;;;;5082588;28;20198;-83
2023/06/03 11:17:28;;;;;;;3.17;1.52;;;28.40;53.50;;;;;;5078735;28;20725;-83
2023/06/03 11:19:59;;;;;;;1.00;0.90;;;28.40;53.80;;;;;;5078583;28;20217;-82
2023/06/03 11:22:46;;;;;;;0.95;0.82;;;28.40;54.30;;;;;;5085717;28;20346;-83
2023/06/03 11:25:30;;;;;;;1.98;1.25;;;28.50;54.50;;;;;;5076373;28;20191;-87
2023/06/03 11:28:35;;;;;;;2.08;1.08;;;28.50;54.50;;;;;;5082168;28;20201;-84
2023/06/03 11:31:05;;;;;;;5.82;1.65;;;28.50;54.30;;;;;;5080325;28;20206;-83
2023/06/03 11:33:35;;;;;;;0.47;0.45;;;28.50;54.40;;;;;;5084511;28;20284;-84
2023/06/03 11:36:42;;;;;;;1.17;0.63;;;28.60;54.50;;;;;;5085406;28;20193;-86
2023/06/03 11:39:11;;;;;;;2.42;0.70;;;28.70;54.50;;;;;;5077419;28;20647;-86
2023/06/03 11:42:08;;;;;;;2.30;0.80;;;28.80;54.40;;;;;;5082246;28;20209;-87
2023/06/03 11:44:39;;;;;;;5.32;1.00;;;28.80;54.40;;;;;;5079272;28;20248;-85
2023/06/03 11:47:07;;;;;;;0.57;0.45;;;28.80;54.30;;;;;;5084831;28;20198;-86
2023/06/03 11:49:38;;;;;;;1.45;0.52;;;28.80;53.40;;;;;;5077621;28;20195;-81
2023/06/03 11:52:07;;;;;;;1.27;0.55;;;28.70;53.30;;;;;;5077685;28;20193;-84
2023/06/03 11:54:36;;;;;;;1.15;0.52;;;28.80;52.90;;;;;;5076014;28;20243;-84
2023/06/03 11:57:08;;;;;;;3.05;1.70;;;28.70;52.90;;;;;;5087904;28;20277;-87
2023/06/03 11:59:41;;;;;;;0.68;0.60;;;28.80;53.40;;;;;;5081933;28;20199;-84
2023/06/03 12:02:11;;;;;;;1.73;1.10;;;28.80;53.30;;;;;;5077385;28;20186;-87
2023/06/03 12:04:40;;;;;;;2.35;1.27;;;28.80;53.50;;;;;;5081183;28;20561;-87
2023/06/03 12:07:16;;;;;;;1.20;0.90;;;28.70;53.40;;;;;;5078069;28;20194;-84
2023/06/03 12:09:44;;;;;;;1.40;0.50;;;28.80;53.50;;;;;;5089387;28;20193;-87
2023/06/03 12:12:14;;;;;;;1.35;0.85;;;28.70;53.40;;;;;;5087882;28;20277;-87
2023/06/03 12:14:44;;;;;;;0.93;0.80;;;28.70;53.00;;;;;;5078881;28;20233;-87
2023/06/03 12:17:15;;;;;;;1.02;0.93;;;28.70;53.70;;;;;;5093152;28;20197;-86
2023/06/03 12:19:45;;;;;;;0.80;0.60;;;28.60;52.80;;;;;;5080336;28;20543;-86
2023/06/03 12:22:14;;;;;;;1.13;0.65;;;28.70;53.50;;;;;;5092067;28;20226;-84
2023/06/03 12:24:44;;;;;;;0.38;0.38;;;28.80;53.70;;;;;;5083463;28;20190;-86
2023/06/03 12:27:25;;;;;;;1.58;0.77;;;28.90;53.40;;;;;;5090160;28;20280;-85
2023/06/03 12:29:55;;;;;;;1.88;1.10;;;28.90;53.60;;;;;;5084916;28;20186;-85
2023/06/03 12:32:28;;;;;;;1.83;0.65;;;28.90;53.40;;;;;;5088133;28;20195;-85
2023/06/03 12:34:58;;;;;;;1.65;1.40;;;28.90;53.20;;;;;;5083762;28;20190;-86
2023/06/03 12:37:29;;;;;;;0.55;0.47;;;29.00;53.40;;;;;;5087257;28;20201;-85
2023/06/03 12:39:59;;;;;;;1.75;1.10;;;29.10;53.60;;;;;;5082821;28;20277;-84
2023/06/03 12:42:42;;;;;;;0.57;0.57;;;29.20;53.20;;;;;;5078607;28;20202;-84
2023/06/03 12:45:11;;;;;;;1.75;0.50;;;29.30;53.10;;;;;;5084242;28;20551;-87
2023/06/03 12:47:45;;;;;;;0.40;0.40;;;29.30;52.80;;;;;;5075204;28;20278;-86
2023/06/03 12:50:16;;;;;;;1.42;1.10;;;29.40;52.50;;;;;;5075203;28;20224;-83
2023/06/03 12:52:44;;;;;;;1.70;1.02;;;29.40;52.50;;;;;;5081307;28;20832;-85
2023/06/03 12:55:15;;;;;;;0.63;0.55;;;29.50;52.80;;;;;;5082674;28;20297;-84
2023/06/03 12:57:46;;;;;;;1.27;0.98;;;29.50;52.70;;;;;;5075094;28;20197;-86
2023/06/03 13:00:16;;;;;;;0.55;0.55;;;29.50;51.90;;;;;;5075351;28;20214;-86
2023/06/03 13:02:47;;;;;;;1.30;1.20;;;29.50;52.10;;;;;;5077123;28;20305;-85
2023/06/03 13:05:16;;;;;;;2.53;0.65;;;29.50;51.60;;;;;;5082086;28;20189;-83